METAR Data
IDs: Format: Raw Decoded Include TAF

Data at: 1342 UTC 24 Aug 2019

METAR for:KHLX (Hillsville/Twin Cnty, VA, US)
Text:KHLX 241335Z AUTO 00000KT 5SM RA SCT006 BKN010 OVC020 14/13 A3022 RMK AO2 P0004 T01370131
Temperature: 13.7°C ( 57°F)
Dewpoint: 13.1°C ( 56°F) [RH = 96%]
Pressure (altimeter):30.22 inches Hg (1023.5 mb)
Winds:calm
Visibility: 5 sm ( 8 km)
Ceiling:1000 feet AGL
Clouds: scattered clouds at 600 feet AGL, broken clouds at 1000 feet AGL, overcast cloud deck at 2000 feet AGL
Weather:RA (moderate rain)
QC Flag:automated observation with no human augmentation